Time;durP1;ratioP1;P1;durP2;ratioP2;P2;SDS_P1;SDS_P2;PMS_P1;PMS_P2;Temp;Humidity;BMP_temperature;BMP_pressure;BME280_temperature;BME280_humidity;BME280_pressure;Samples;Min_cycle;Max_cycle;Signal;HPM_P1;HPM_P2
2022/12/22 03:28:24;;;;;;;;;17.25;14.25;;;;;3.18;70.96;101433.59;146618;600;46013;-72
2022/12/22 03:31:17;;;;;;;;;18.50;17.00;;;;;3.09;71.01;101431.84;146616;579;46020;-72
2022/12/22 03:34:18;;;;;;;;;18.50;15.50;;;;;3.01;71.66;101429.47;146610;601;46016;-73
2022/12/22 03:37:11;;;;;;;;;18.50;16.75;;;;;3.00;72.02;101437.91;146613;571;46020;-71
2022/12/22 03:40:03;;;;;;;;;16.50;12.75;;;;;3.01;72.23;101441.38;146611;563;46014;-71
2022/12/22 03:46:29;;;;;;;;;18.50;16.75;;;;;3.01;71.52;101436.25;146611;563;46034;-72
2022/12/22 03:49:25;;;;;;;;;18.25;13.75;;;;;3.00;72.13;101437.91;146614;632;46011;-71
2022/12/22 03:52:20;;;;;;;;;18.25;15.50;;;;;2.98;72.12;101433.41;146604;599;47016;-71
2022/12/22 03:55:13;;;;;;;;;21.50;15.50;;;;;2.97;72.64;101435.06;146614;610;46020;-73
2022/12/22 03:58:09;;;;;;;;;22.00;15.75;;;;;2.95;72.56;101438.25;146612;580;46016;-72
2022/12/22 04:01:09;;;;;;;;;19.00;14.50;;;;;2.92;72.34;101437.97;146612;620;46020;-72
2022/12/22 04:04:05;;;;;;;;;18.25;15.00;;;;;2.92;72.90;101440.53;146609;569;46917;-72
2022/12/22 04:07:15;;;;;;;;;19.00;14.00;;;;;2.92;72.48;101448.22;146614;783;46010;-74
2022/12/22 04:13:25;;;;;;;;;24.25;16.50;;;;;2.93;72.54;101448.38;146612;631;46021;-73
2022/12/22 04:16:17;;;;;;;;;18.75;16.50;;;;;2.89;73.00;101447.94;146612;626;47012;-74
2022/12/22 04:19:13;;;;;;;;;20.25;16.50;;;;;2.83;72.70;101442.22;146615;564;46011;-72
2022/12/22 04:22:14;;;;;;;;;15.50;14.25;;;;;2.78;73.37;101437.59;146612;665;47012;-72
2022/12/22 04:25:06;;;;;;;;;18.25;15.00;;;;;2.75;73.27;101444.09;146614;638;46010;-71
2022/12/22 04:28:08;;;;;;;;;17.50;13.00;;;;;2.77;73.82;101442.56;146611;569;46017;-71
2022/12/22 04:31:07;;;;;;;;;17.75;16.50;;;;;2.77;73.96;101438.34;146617;576;46020;-70
2022/12/22 04:34:08;;;;;;;;;19.25;13.25;;;;;2.78;73.46;101436.69;146617;572;46015;-70
2022/12/22 04:37:03;;;;;;;;;20.00;15.50;;;;;2.79;73.39;101433.37;146620;605;46020;-74
2022/12/22 04:39:55;;;;;;;;;16.50;14.00;;;;;2.81;73.66;101431.84;146617;619;46016;-73
2022/12/22 04:42:49;;;;;;;;;15.00;12.25;;;;;2.82;73.40;101440.44;146622;606;46021;-74
2022/12/22 04:45:42;;;;;;;;;14.25;13.00;;;;;2.81;73.49;101438.66;146617;569;46016;-71
2022/12/22 04:48:35;;;;;;;;;15.00;14.75;;;;;2.76;73.44;101428.84;146618;564;46020;-71
2022/12/22 04:51:29;;;;;;;;;19.00;17.25;;;;;2.74;73.70;101427.84;146618;592;45916;-72
2022/12/22 04:54:24;;;;;;;;;18.50;14.00;;;;;2.69;73.18;101430.72;146618;624;46020;-70
2022/12/22 04:57:28;;;;;;;;;;;;;;;;;;;;;
2022/12/22 05:00:21;;;;;;;;;15.75;14.00;;;;;2.59;73.28;101436.63;146620;660;46033;-71
2022/12/22 05:03:19;;;;;;;;;16.25;16.00;;;;;2.58;73.68;101441.59;146614;647;46016;-71
2022/12/22 05:06:15;;;;;;;;;17.00;12.75;;;;;2.57;73.67;101442.34;146620;644;46010;-74
2022/12/22 05:09:07;;;;;;;;;20.75;15.25;;;;;2.56;74.26;101440.56;146617;576;47016;-72
2022/12/22 05:12:08;;;;;;;;;35.00;26.25;;;;;2.53;73.84;101436.06;146621;698;46011;-71
2022/12/22 05:15:12;;;;;;;;;36.75;30.25;;;;;2.50;73.79;101439.22;146613;694;47016;-72
2022/12/22 05:18:06;;;;;;;;;34.50;29.00;;;;;2.52;74.58;101440.28;146618;570;46010;-72
2022/12/22 05:20:58;;;;;;;;;50.25;38.75;;;;;2.50;74.43;101438.31;146615;584;46016;-74
2022/12/22 05:23:53;;;;;;;;;44.75;36.00;;;;;2.49;73.99;101442.56;146617;692;46020;-72
2022/12/22 05:26:48;;;;;;;;;34.00;28.75;;;;;2.47;74.81;101445.72;146615;591;46016;-72
2022/12/22 05:29:40;;;;;;;;;26.25;20.50;;;;;2.42;74.72;101441.81;146622;595;46010;-73
2022/12/22 05:32:50;;;;;;;;;22.50;18.00;;;;;2.42;75.09;101444.38;146616;591;46012;-72
2022/12/22 05:35:44;;;;;;;;;18.25;15.25;;;;;2.46;75.54;101454.13;146620;576;46020;-74
2022/12/22 05:38:41;;;;;;;;;19.75;17.50;;;;;2.50;74.88;101448.56;146619;607;46016;-74
2022/12/22 05:41:39;;;;;;;;;35.50;28.00;;;;;2.55;74.71;101455.00;146620;573;46021;-74
2022/12/22 05:44:31;;;;;;;;;24.25;22.25;;;;;2.58;74.24;101451.84;146614;752;46916;-74
2022/12/22 05:47:29;;;;;;;;;24.25;19.00;;;;;2.63;74.12;101454.06;146620;579;46013;-73
2022/12/22 05:50:31;;;;;;;;;22.50;19.00;;;;;2.66;73.41;101464.59;146618;657;46014;-77
2022/12/22 05:53:24;;;;;;;;;22.00;22.00;;;;;2.67;74.04;101465.50;146620;612;46020;-73
2022/12/22 05:56:17;;;;;;;;;25.75;20.25;;;;;2.66;73.67;101469.72;146619;626;46012;-74
2022/12/22 05:59:09;;;;;;;;;22.75;19.50;;;;;2.67;73.99;101468.97;146625;606;46010;-73
2022/12/22 06:02:04;;;;;;;;;29.25;24.75;;;;;2.71;74.09;101470.16;146622;570;45016;-71
2022/12/22 06:04:56;;;;;;;;;27.25;25.00;;;;;2.75;73.71;101467.13;146622;623;46010;-71
2022/12/22 06:07:50;;;;;;;;;29.25;24.75;;;;;2.81;73.86;101471.94;146620;571;45022;-71
2022/12/22 06:10:43;;;;;;;;;23.00;21.50;;;;;2.86;73.63;101473.25;146623;588;45020;-71
2022/12/22 06:13:40;;;;;;;;;23.00;19.25;;;;;2.92;73.53;101484.97;146616;581;46016;-71
2022/12/22 06:16:32;;;;;;;;;28.25;22.50;;;;;2.98;73.55;101484.66;146618;688;46020;-76
2022/12/22 06:19:31;;;;;;;;;24.75;22.75;;;;;3.03;73.46;101482.53;146618;599;46017;-78
2022/12/22 06:22:24;;;;;;;;;28.25;22.50;;;;;3.07;73.67;101482.94;146619;702;45020;-78
2022/12/22 06:25:17;;;;;;;;;34.25;29.75;;;;;3.09;73.53;101489.12;146617;604;46012;-78
2022/12/22 06:28:11;;;;;;;;;59.75;47.00;;;;;3.10;73.51;101477.22;146619;617;46020;-77
2022/12/22 06:31:05;;;;;;;;;55.50;40.50;;;;;3.16;74.05;101485.47;146614;609;46012;-76
2022/12/22 06:33:57;;;;;;;;;41.50;32.50;;;;;3.20;73.79;101480.75;146620;615;46011;-78
2022/12/22 06:36:51;;;;;;;;;35.50;27.00;;;;;3.26;74.04;101485.53;146616;563;46016;-76
2022/12/22 06:39:54;;;;;;;;;39.75;33.50;;;;;3.31;73.63;101492.00;146620;609;46013;-78
2022/12/22 06:45:59;;;;;;;;;35.75;27.50;;;;;3.44;74.17;101492.38;146621;657;46012;-79
2022/12/22 06:48:51;;;;;;;;;35.00;30.25;;;;;3.55;74.15;101493.38;146615;606;47012;-79
2022/12/22 06:51:48;;;;;;;;;40.25;34.25;;;;;3.68;74.08;101498.84;146620;571;46010;-79
2022/12/22 06:54:41;;;;;;;;;40.00;33.25;;;;;3.80;74.62;101496.50;146615;700;46016;-78
2022/12/22 06:57:36;;;;;;;;;39.00;32.50;;;;;3.93;74.79;101498.50;146618;579;46021;-78
2022/12/22 07:00:33;;;;;;;;;43.00;34.25;;;;;4.09;74.42;101493.97;146619;571;46016;-78
2022/12/22 07:03:28;;;;;;;;;54.75;42.75;;;;;4.33;75.24;101491.75;146616;603;46020;-78
2022/12/22 07:06:23;;;;;;;;;56.50;44.00;;;;;4.60;75.20;101493.28;146614;579;46014;-76
2022/12/22 07:09:19;;;;;;;;;55.75;43.00;;;;;4.79;74.06;101498.34;146619;701;46020;-76
2022/12/22 07:12:13;;;;;;;;;64.00;44.50;;;;;4.97;73.34;101499.03;146614;567;46012;-78
2022/12/22 07:15:16;;;;;;;;;62.25;44.75;;;;;5.15;73.04;101490.31;146617;593;46012;-78
2022/12/22 07:18:32;;;;;;;;;53.50;39.25;;;;;2.25;72.10;100947.28;146616;579;46013;-78
2022/12/22 07:21:24;;;;;;;;;72.75;54.25;;;;;5.53;71.38;101487.50;146619;611;46020;-77
2022/12/22 07:24:24;;;;;;;;;60.50;47.50;;;;;5.63;70.77;101489.16;146618;611;46013;-76
2022/12/22 07:27:16;;;;;;;;;66.75;51.25;;;;;5.73;71.07;101489.12;146621;611;46010;-78
2022/12/22 07:30:18;;;;;;;;;65.00;48.00;;;;;5.84;72.31;101477.19;146617;565;46016;-79
2022/12/22 07:33:13;;;;;;;;;59.25;46.75;;;;;6.13;72.75;101482.16;146617;575;45021;-78
2022/12/22 07:36:20;;;;;;;;;62.75;49.00;;;;;6.57;72.93;101475.38;146613;563;46016;-73
2022/12/22 07:39:15;;;;;;;;;67.50;50.25;;;;;7.06;71.59;101475.75;146613;579;46020;-76
2022/12/22 07:45:22;;;;;;;;;65.00;50.25;;;;;8.23;69.04;101472.47;146616;610;46010;-78
2022/12/22 07:51:30;;;;;;;;;66.25;52.75;;;;;9.40;63.47;101473.78;146613;620;46020;-78
2022/12/22 07:54:24;;;;;;;;;64.25;49.25;;;;;9.79;60.34;101479.88;146613;579;46030;-79
2022/12/22 07:57:17;;;;;;;;;68.50;52.50;;;;;9.97;60.08;101477.56;146614;621;46020;-79
2022/12/22 08:00:18;;;;;;;;;61.50;48.25;;;;;10.12;59.20;101484.69;146612;563;46012;-77
2022/12/22 08:03:13;;;;;;;;;66.50;50.75;;;;;10.17;58.37;101485.84;146617;764;45021;-78
2022/12/22 08:06:15;;;;;;;;;65.00;50.25;;;;;10.18;58.94;101489.34;146611;647;46917;-78
2022/12/22 08:09:09;;;;;;;;;61.00;45.25;;;;;10.27;58.68;101497.75;146613;629;46021;-77
2022/12/22 08:12:03;;;;;;;;;63.75;48.00;;;;;10.38;58.76;101495.84;146613;631;46016;-78
2022/12/22 08:14:56;;;;;;;;;65.50;50.25;;;;;10.49;58.30;101489.62;146615;605;46010;-78
2022/12/22 08:17:51;;;;;;;;;64.00;50.00;;;;;10.60;58.17;101491.22;146612;569;46017;-78
2022/12/22 08:20:43;;;;;;;;;61.75;47.25;;;;;10.68;58.03;101493.41;146611;598;46913;-75
2022/12/22 08:23:36;;;;;;;;;52.50;42.75;;;;;10.73;57.68;101497.19;146613;634;46031;-77
2022/12/22 08:26:39;;;;;;;;;43.00;35.50;;;;;10.78;57.58;101498.37;146617;587;45021;-77
2022/12/22 08:29:55;;;;;;;;;44.50;35.75;;;;;10.78;57.93;101494.09;146612;628;46016;-77
2022/12/22 08:32:52;;;;;;;;;46.00;37.50;;;;;10.86;57.61;101486.78;146620;619;46012;-77
2022/12/22 08:35:46;;;;;;;;;41.75;34.00;;;;;10.95;57.64;101487.34;146617;569;46014;-76
2022/12/22 08:38:44;;;;;;;;;35.75;31.25;;;;;11.07;57.11;101485.50;146619;573;46010;-78
2022/12/22 08:41:53;;;;;;;;;43.00;34.25;;;;;11.20;56.89;101487.16;146617;666;46012;-77
2022/12/22 08:44:52;;;;;;;;;47.00;38.75;;;;;11.33;56.79;101486.19;146621;584;46010;-77
2022/12/22 08:47:45;;;;;;;;;48.25;39.75;;;;;11.46;56.80;101482.62;146623;588;46013;-77
2022/12/22 08:50:40;;;;;;;;;42.00;34.50;;;;;11.57;56.46;101474.66;146624;573;45020;-78
2022/12/22 08:53:33;;;;;;;;;39.00;33.25;;;;;11.69;56.86;101471.91;146619;583;46024;-77
2022/12/22 08:56:25;;;;;;;;;29.75;26.25;;;;;11.84;56.20;101466.72;146621;600;46020;-76
2022/12/22 08:59:20;;;;;;;;;31.75;29.00;;;;;11.92;55.13;101447.25;146617;653;46016;-76
2022/12/22 09:02:15;;;;;;;;;32.00;26.50;;;;;12.10;55.82;101464.72;146622;574;46010;-77
2022/12/22 09:05:10;;;;;;;;;32.50;29.25;;;;;12.18;55.29;101458.25;146619;624;45016;-77
2022/12/22 09:08:04;;;;;;;;;33.75;27.50;;;;;12.31;54.78;101452.06;146625;565;45020;-76
2022/12/22 09:10:57;;;;;;;;;27.50;24.50;;;;;12.38;54.29;101454.19;146617;627;46016;-78
2022/12/22 09:13:49;;;;;;;;;29.50;26.75;;;;;12.44;54.61;101451.91;146616;623;47010;-76
2022/12/22 09:16:47;;;;;;;;;33.50;29.50;;;;;12.48;55.06;101441.75;146615;600;46014;-77
2022/12/22 09:19:45;;;;;;;;;36.75;31.50;;;;;12.53;54.16;101443.72;146616;596;46020;-76
2022/12/22 09:22:46;;;;;;;;;30.75;26.00;;;;;12.54;54.75;101436.00;146616;631;47013;-78
2022/12/22 09:25:38;;;;;;;;;33.75;29.50;;;;;12.52;53.66;101428.91;146619;566;46021;-77
2022/12/22 09:28:45;;;;;;;;;45.00;33.75;;;;;12.53;55.94;101422.91;146613;637;47915;-76
2022/12/22 09:31:40;;;;;;;;;36.75;32.00;;;;;12.61;53.99;101406.00;146619;583;46021;-77
2022/12/22 09:34:40;;;;;;;;;30.00;28.50;;;;;12.69;53.66;101418.59;146617;569;46016;-76
2022/12/22 09:37:33;;;;;;;;;34.25;27.50;;;;;12.66;53.25;101407.16;146617;636;46020;-76
2022/12/22 09:40:28;;;;;;;;;40.50;33.50;;;;;12.61;54.06;101408.59;146617;581;46014;-77
2022/12/22 09:43:31;;;;;;;;;33.25;29.50;;;;;12.61;54.58;101406.00;146619;668;46020;-77
2022/12/22 09:46:30;;;;;;;;;40.00;31.25;;;;;12.69;55.08;101399.50;146617;582;46014;-77
2022/12/22 09:49:23;;;;;;;;;35.00;28.50;;;;;12.81;54.91;101389.75;146621;607;46020;-77
2022/12/22 09:52:53;;;;;;;;;33.50;27.00;;;;;10.42;55.50;100956.00;146617;593;46015;-77
2022/12/22 09:55:51;;;;;;;;;38.25;30.75;;;;;12.96;54.58;101379.25;146619;655;46020;-77
2022/12/22 09:58:46;;;;;;;;;36.25;30.75;;;;;13.04;55.75;101380.53;146614;571;46016;-77
2022/12/22 10:02:03;;;;;;;;;31.50;28.00;;;;;13.17;55.41;101379.44;146619;600;46021;-77
2022/12/22 10:05:37;;;;;;;;;32.50;30.25;;;;;10.67;54.03;100926.25;146618;569;46012;-77
2022/12/22 10:08:37;;;;;;;;;32.75;27.25;;;;;13.18;54.00;101373.44;146615;607;46021;-77
2022/12/22 10:11:29;;;;;;;;;34.25;27.25;;;;;13.16;54.37;101369.84;146615;563;46016;-78
2022/12/22 10:14:48;;;;;;;;;35.00;29.75;;;;;13.17;55.70;101359.50;146616;585;46021;-76
2022/12/22 10:17:41;;;;;;;;;31.75;29.50;;;;;13.26;54.04;101364.31;146615;592;46016;-76
2022/12/22 10:20:33;;;;;;;;;35.75;27.75;;;;;13.32;53.54;101348.13;146620;570;46020;-76
2022/12/22 10:23:37;;;;;;;;;30.75;26.25;;;;;13.33;53.16;101337.78;146616;627;46915;-79
2022/12/22 10:26:34;;;;;;;;;31.50;25.50;;;;;13.31;53.74;101334.19;146613;674;46020;-77
2022/12/22 10:29:43;;;;;;;;;28.75;23.00;;;;;13.36;54.90;101334.41;146617;604;46012;-76
2022/12/22 10:32:40;;;;;;;;;31.75;26.75;;;;;13.44;54.45;101321.78;146621;569;46020;-75
2022/12/22 10:35:56;;;;;;;;;25.50;21.75;;;;;11.04;55.71;100872.88;146616;582;46915;-76
2022/12/22 10:39:13;;;;;;;;;25.25;20.50;;;;;13.78;55.15;101309.56;146619;569;46020;-79
2022/12/22 10:42:16;;;;;;;;;24.50;22.00;;;;;13.92;53.90;101312.81;146616;586;46016;-76
2022/12/22 10:45:22;;;;;;;;;24.50;24.00;;;;;14.02;52.84;101319.38;146619;647;46011;-78
2022/12/22 10:48:14;;;;;;;;;28.25;25.75;;;;;14.06;51.66;101319.56;146612;607;46914;-78
2022/12/22 10:51:18;;;;;;;;;25.25;19.50;;;;;14.11;52.77;101311.94;146619;606;46020;-78
2022/12/22 10:54:10;;;;;;;;;29.25;24.75;;;;;14.21;51.28;101303.75;146616;615;46037;-78
2022/12/22 10:57:29;;;;;;;;;27.50;24.75;;;;;14.26;54.11;101303.94;146618;574;46010;-78
2022/12/22 11:00:43;;;;;;;;;41.50;32.25;;;;;11.83;54.41;100854.28;146615;630;46017;-76
2022/12/22 11:03:36;;;;;;;;;27.25;23.00;;;;;14.54;52.69;101291.34;146620;602;46020;-78
2022/12/22 11:06:28;;;;;;;;;27.75;24.50;;;;;14.73;52.24;101279.97;146615;581;46016;-79
2022/12/22 11:09:23;;;;;;;;;25.00;21.50;;;;;14.92;51.46;101283.38;146615;585;46010;-78
2022/12/22 11:12:56;;;;;;;;;25.50;19.50;;;;;12.70;51.65;100879.19;146619;616;46034;-78
2022/12/22 11:16:12;;;;;;;;;13.50;12.50;;;;;15.01;50.66;101276.84;146622;584;46011;-79
2022/12/22 11:20:01;;;;;;;;;12.00;11.00;;;;;12.70;50.87;100875.72;146617;569;46915;-77
2022/12/22 11:23:18;;;;;;;;;14.50;13.00;;;;;14.98;52.15;101271.50;146620;583;46020;-79
2022/12/22 11:26:42;;;;;;;;;17.25;17.00;;;;;15.04;50.84;101267.34;146617;648;46016;-78
2022/12/22 11:30:02;;;;;;;;;20.00;15.75;;;;;15.08;51.02;101264.00;146621;626;46010;-78
2022/12/22 11:33:48;;;;;;;;;18.25;14.50;;;;;12.56;50.87;100823.06;146616;583;46014;-80
2022/12/22 11:37:08;;;;;;;;;19.75;16.00;;;;;14.99;52.15;101256.72;146619;593;46020;-78
2022/12/22 11:40:42;;;;;;;;;15.00;15.00;;;;;15.01;51.24;101250.72;146618;565;46912;-80
2022/12/22 11:44:10;;;;;;;;;25.50;21.00;;;;;15.02;51.83;101228.12;146621;577;46010;-78
2022/12/22 11:47:38;;;;;;;;;18.25;17.00;;;;;15.07;53.00;101241.34;146617;611;46035;-79
2022/12/22 11:50:53;;;;;;;;;13.75;11.50;;;;;15.10;52.27;101239.75;146621;584;46020;-77
2022/12/22 11:54:20;;;;;;;;;14.75;12.75;;;;;15.09;52.84;101229.25;146619;651;46016;-78
2022/12/22 11:58:00;;;;;;;;;17.50;14.25;;;;;12.62;51.93;100781.72;146618;605;46020;-78
2022/12/22 12:01:48;;;;;;;;;13.25;11.00;;;;;15.15;49.52;101219.94;146616;620;46016;-78
2022/12/22 12:05:00;;;;;;;;;40.00;28.75;;;;;15.18;50.77;101217.44;146618;569;46012;-79
2022/12/22 12:08:19;;;;;;;;;16.50;14.00;;;;;15.29;50.77;101215.25;146617;652;46012;-78
2022/12/22 12:11:56;;;;;;;;;10.50;9.75;;;;;15.44;50.79;101212.38;146614;682;47912;-79
2022/12/22 12:15:30;;;;;;;;;16.00;12.75;;;;;15.53;51.07;101207.50;146620;636;46017;-79
2022/12/22 12:18:56;;;;;;;;;12.00;9.50;;;;;13.35;50.99;100812.63;146619;602;46020;-78
2022/12/22 12:22:08;;;;;;;;;17.75;13.50;;;;;15.70;49.64;101201.25;146616;594;46016;-80
2022/12/22 12:25:33;;;;;;;;;16.25;12.75;;;;;13.48;49.89;100781.84;146615;574;46020;-80
2022/12/22 12:28:53;;;;;;;;;14.25;10.75;;;;;15.97;49.06;101190.00;146617;601;46018;-80
2022/12/22 12:31:54;;;;;;;;;11.00;9.25;;;;;16.09;48.56;101187.84;146618;616;46020;-80
2022/12/22 12:34:52;;;;;;;;;13.25;12.25;;;;;16.27;48.77;101184.12;146617;669;46015;-80
2022/12/22 12:37:50;;;;;;;;;11.50;11.50;;;;;16.39;46.07;101179.31;146621;597;46010;-79
2022/12/22 12:41:04;;;;;;;;;13.00;10.50;;;;;16.44;46.46;101193.44;146620;577;47016;-78
2022/12/22 12:43:58;;;;;;;;;11.00;10.00;;;;;16.35;46.33;101185.25;146621;591;46011;-80
2022/12/22 12:47:26;;;;;;;;;14.00;11.25;;;;;16.33;48.48;101184.34;146616;600;46016;-81
2022/12/22 12:50:38;;;;;;;;;15.25;13.25;;;;;16.17;50.31;101183.78;146618;598;46020;-80
2022/12/22 12:53:33;;;;;;;;;15.75;12.25;;;;;16.10;48.71;101192.22;146618;638;46016;-79
2022/12/22 12:56:58;;;;;;;;;18.00;14.25;;;;;13.69;50.35;100751.44;146620;576;46020;-80
2022/12/22 12:59:51;;;;;;;;;17.25;16.00;;;;;16.29;49.15;101191.19;146616;592;46016;-79
2022/12/22 13:02:58;;;;;;;;;14.50;11.50;;;;;16.42;48.97;101181.12;146622;607;46020;-79
2022/12/22 13:06:05;;;;;;;;;22.00;20.00;;;;;16.60;49.31;101184.38;146616;727;46016;-78
2022/12/22 13:09:45;;;;;;;;;14.50;13.25;;;;;16.78;50.76;101178.91;146620;715;46010;-78
2022/12/22 13:12:56;;;;;;;;;19.50;16.25;;;;;16.97;49.80;101180.41;146616;617;46017;-79
2022/12/22 13:16:31;;;;;;;;;18.75;17.00;;;;;14.72;48.77;100752.66;146621;587;46010;-77
2022/12/22 13:19:27;;;;;;;;;19.50;17.50;;;;;17.36;47.96;101182.53;146616;570;46016;-78
2022/12/22 13:22:29;;;;;;;;;17.00;16.75;;;;;17.39;48.67;101178.25;146624;665;45021;-78
2022/12/22 13:25:25;;;;;;;;;18.75;17.25;;;;;17.49;46.77;101180.31;146618;614;46014;-78
2022/12/22 13:28:23;;;;;;;;;27.50;22.25;;;;;17.60;45.29;101179.72;146619;586;46020;-80
2022/12/22 13:31:39;;;;;;;;;26.00;23.00;;;;;17.61;48.21;101178.91;146617;570;46014;-79
2022/12/22 13:35:20;;;;;;;;;21.25;19.25;;;;;16.04;48.55;100908.63;146623;583;45020;-79
2022/12/22 13:38:35;;;;;;;;;16.00;15.25;;;;;15.46;49.68;100779.53;146623;661;45016;-78
2022/12/22 13:41:30;;;;;;;;;22.75;18.00;;;;;17.82;46.33;101170.78;146623;641;46010;-81
2022/12/22 13:44:31;;;;;;;;;20.50;18.50;;;;;17.89;46.46;101171.03;146621;593;45017;-76
2022/12/22 13:47:31;;;;;;;;;21.75;19.00;;;;;17.90;46.54;101180.66;146626;650;45029;-78
2022/12/22 13:50:46;;;;;;;;;21.00;18.75;;;;;17.85;48.27;101173.50;146619;633;46028;-80
2022/12/22 13:53:46;;;;;;;;;33.50;25.75;;;;;17.80;46.35;101162.91;146621;565;45048;-79
2022/12/22 13:56:49;;;;;;;;;34.25;30.75;;;;;17.69;47.79;101156.41;146617;617;46012;-76
2022/12/22 13:59:55;;;;;;;;;21.50;18.50;;;;;17.54;46.92;101159.50;146619;615;45021;-77
2022/12/22 14:02:53;;;;;;;;;15.25;14.25;;;;;17.38;46.43;101160.72;146618;563;46032;-76
2022/12/22 14:05:48;;;;;;;;;13.75;13.25;;;;;17.22;46.46;101148.00;146620;572;46010;-75
2022/12/22 14:08:40;;;;;;;;;14.75;13.75;;;;;17.03;46.06;101157.03;146620;585;46012;-74
2022/12/22 14:11:34;;;;;;;;;11.75;11.75;;;;;16.71;47.56;101156.84;146620;620;45020;-77
2022/12/22 14:14:40;;;;;;;;;16.50;14.50;;;;;16.46;51.44;101154.25;146618;610;46017;-77
2022/12/22 14:17:43;;;;;;;;;12.50;11.50;;;;;16.27;49.37;101144.88;146624;569;45020;-75
2022/12/22 14:20:40;;;;;;;;;12.75;12.00;;;;;16.05;49.72;101144.12;146617;630;46017;-75
2022/12/22 14:23:44;;;;;;;;;16.25;15.25;;;;;15.97;50.28;101139.44;146622;602;46010;-76
2022/12/22 14:26:38;;;;;;;;;19.50;16.00;;;;;15.93;49.95;101133.22;146619;564;46012;-77
2022/12/22 14:29:35;;;;;;;;;18.25;17.75;;;;;15.87;50.04;101133.88;146619;570;46021;-77
2022/12/22 14:32:46;;;;;;;;;18.00;15.25;;;;;15.72;52.20;101141.16;146618;596;46014;-76
2022/12/22 14:35:47;;;;;;;;;20.75;18.00;;;;;15.52;50.78;101131.66;146621;572;46021;-76
2022/12/22 14:38:48;;;;;;;;;16.50;12.75;;;;;15.18;50.70;101133.88;146619;708;46012;-76
2022/12/22 14:41:55;;;;;;;;;28.25;24.25;;;;;14.82;52.46;101132.41;146617;604;46020;-76
2022/12/22 14:45:03;;;;;;;;;36.75;31.25;;;;;14.42;53.82;101123.78;146616;569;46012;-76
2022/12/22 14:47:58;;;;;;;;;53.50;41.00;;;;;13.98;54.04;101127.97;146617;599;46020;-74
2022/12/22 14:51:05;;;;;;;;;51.50;39.75;;;;;13.52;55.31;101135.44;146612;675;46017;-78
2022/12/22 14:54:04;;;;;;;;;41.25;33.25;;;;;13.13;56.43;101132.75;146619;582;46020;-78
2022/12/22 14:57:12;;;;;;;;;42.50;32.00;;;;;12.88;57.28;101128.97;146618;628;46013;-77
2022/12/22 15:00:31;;;;;;;;;35.25;30.00;;;;;12.65;58.08;101127.88;146618;576;46020;-78
2022/12/22 15:03:41;;;;;;;;;30.25;25.25;;;;;12.45;58.83;101136.38;146614;580;46915;-77
2022/12/22 15:06:40;;;;;;;;;20.25;20.00;;;;;12.22;59.24;101125.72;146617;579;46020;-77
2022/12/22 15:09:38;;;;;;;;;21.75;20.50;;;;;11.98;59.61;101133.13;146617;682;46016;-78
2022/12/22 15:12:30;;;;;;;;;26.00;21.25;;;;;11.73;60.37;101133.53;146618;571;46021;-78
2022/12/22 15:15:27;;;;;;;;;39.50;34.50;;;;;11.49;61.21;101135.69;146612;613;46016;-77
2022/12/22 15:18:33;;;;;;;;;43.50;36.00;;;;;11.24;62.03;101135.19;146618;581;46020;-77
2022/12/22 15:21:25;;;;;;;;;36.50;31.00;;;;;11.00;62.46;101129.53;146615;626;46014;-78
2022/12/22 15:24:20;;;;;;;;;33.25;28.00;;;;;10.83;62.70;101131.16;146619;582;46010;-77
2022/12/22 15:27:18;;;;;;;;;28.00;24.75;;;;;10.62;63.46;101130.84;146615;595;46017;-77
2022/12/22 15:29:57;;;;;;;;;23.50;21.25;;;;;10.43;64.49;101134.06;146704;571;46013;-77
2022/12/22 15:32:56;;;;;;;;;41.75;32.25;;;;;10.28;64.84;101138.34;146616;699;46016;-77
2022/12/22 15:35:51;;;;;;;;;36.50;32.00;;;;;10.12;64.99;101144.28;146615;619;47010;-78
2022/12/22 15:38:43;;;;;;;;;42.50;32.75;;;;;9.97;65.50;101144.28;146610;577;46034;-78
2022/12/22 15:41:36;;;;;;;;;46.50;35.75;;;;;9.84;65.49;101144.31;146618;627;46010;-78
2022/12/22 15:44:32;;;;;;;;;45.00;34.25;;;;;9.77;66.41;101147.34;146613;606;46016;-79
2022/12/22 15:47:24;;;;;;;;;66.50;51.00;;;;;9.74;66.32;101149.75;146619;775;46020;-78
2022/12/22 15:50:30;;;;;;;;;55.25;43.25;;;;;9.68;66.86;101150.25;146612;587;46016;-77
2022/12/22 15:53:25;;;;;;;;;46.50;38.50;;;;;9.57;66.80;101154.81;146617;565;46021;-78
2022/12/22 15:56:23;;;;;;;;;57.75;43.50;;;;;9.48;66.98;101156.81;146613;606;46012;-79
2022/12/22 15:59:33;;;;;;;;;60.50;46.50;;;;;9.41;66.51;101162.41;146615;576;46021;-78
2022/12/22 16:02:29;;;;;;;;;53.25;42.00;;;;;9.34;67.62;101157.62;146611;569;46016;-78
2022/12/22 16:05:42;;;;;;;;;65.50;49.25;;;;;9.21;68.15;101161.12;146615;607;46015;-79
2022/12/22 16:08:45;;;;;;;;;55.25;41.50;;;;;9.09;68.01;101153.47;146610;621;46012;-77
2022/12/22 16:11:41;;;;;;;;;51.00;41.50;;;;;8.99;67.91;101145.94;146617;639;46010;-77
2022/12/22 16:14:33;;;;;;;;;55.50;42.75;;;;;8.93;68.21;101151.59;146609;579;46016;-78
2022/12/22 16:17:31;;;;;;;;;54.00;43.50;;;;;8.88;67.96;101158.19;146617;588;46010;-78
2022/12/22 16:20:33;;;;;;;;;52.50;40.00;;;;;8.88;68.06;101155.59;146611;665;46016;-78
2022/12/22 16:23:28;;;;;;;;;47.00;35.50;;;;;8.85;68.26;101163.16;146616;731;46020;-78
2022/12/22 16:26:23;;;;;;;;;56.00;41.75;;;;;8.83;68.03;101169.03;146612;588;46012;-79
2022/12/22 16:29:22;;;;;;;;;54.00;42.00;;;;;8.80;67.88;101169.72;146612;702;46010;-78
2022/12/22 16:32:30;;;;;;;;;47.25;36.75;;;;;8.81;67.93;101178.38;146607;680;46016;-79
2022/12/22 16:35:31;;;;;;;;;47.00;37.75;;;;;8.81;67.70;101175.78;146607;563;46010;-76
2022/12/22 16:38:27;;;;;;;;;58.50;46.00;;;;;8.80;67.67;101180.06;146607;582;46016;-77
2022/12/22 16:41:37;;;;;;;;;55.25;42.75;;;;;8.83;66.88;101182.84;146610;607;46020;-77
2022/12/22 16:44:35;;;;;;;;;69.00;52.50;;;;;8.87;67.39;101183.94;146603;592;46017;-78
2022/12/22 16:47:49;;;;;;;;;72.00;58.00;;;;;8.86;67.35;101187.34;146607;605;46014;-78
2022/12/22 16:50:51;;;;;;;;;80.00;71.33;;;;;8.86;67.40;101182.16;146605;669;46012;-78
2022/12/22 16:53:47;;;;;;;;;77.00;56.75;;;;;8.88;67.31;101186.63;146608;773;46030;-77
2022/12/22 16:56:41;;;;;;;;;69.75;54.25;;;;;8.89;66.90;101184.94;146601;635;46016;-77
2022/12/22 16:59:45;;;;;;;;;67.50;52.00;;;;;8.86;66.88;101180.47;146609;576;46021;-76
2022/12/22 17:02:40;;;;;;;;;70.50;55.00;;;;;8.79;66.55;101184.34;146603;595;46916;-78
2022/12/22 17:05:44;;;;;;;;;67.50;53.00;;;;;8.69;66.33;101187.13;146607;636;46029;-77
2022/12/22 17:08:41;;;;;;;;;62.00;47.75;;;;;8.56;67.14;101177.62;146604;563;46916;-77
2022/12/22 17:11:36;;;;;;;;;62.50;49.00;;;;;8.50;67.05;101187.59;146609;590;46010;-77
2022/12/22 17:14:39;;;;;;;;;57.25;45.25;;;;;8.43;66.84;101180.22;146606;586;46016;-78
2022/12/22 17:17:32;;;;;;;;;50.75;41.25;;;;;8.39;67.20;101185.97;146610;565;46030;-77
2022/12/22 17:20:29;;;;;;;;;48.00;38.25;;;;;8.32;67.05;101179.47;146604;623;46916;-78
2022/12/22 17:23:41;;;;;;;;;50.00;38.75;;;;;8.29;66.35;101187.00;146610;584;46020;-78
2022/12/22 17:26:36;;;;;;;;;49.00;38.75;;;;;8.25;67.34;101192.75;146605;573;47012;-78
2022/12/22 17:29:31;;;;;;;;;46.50;35.00;;;;;8.18;66.94;101190.53;146609;653;46021;-77
2022/12/22 17:32:31;;;;;;;;;47.75;37.75;;;;;8.08;67.31;101186.44;146604;576;46016;-78
2022/12/22 17:35:27;;;;;;;;;41.50;34.50;;;;;8.02;68.17;101193.75;146609;632;46021;-78